Terminal Aerodrome Forecast
Issued by NWS Wakefield, VA

Home | Current Version | Previous Version | Text Only | Print | Product List | Glossary On
Versions: 1 2 3 4 5 6 7 8 9 10 11 12 13 14 15 16 17 18
667
FTUS41 KAKQ 130552
TAFRIC
TAF
KRIC 130552Z 1306/1406 30005KT P6SM OVC060
     FM131000 30012G19KT P6SM OVC060
     FM131300 32016G25KT P6SM OVC060
     FM132300 32013G20KT P6SM BKN060
     FM140100 31008KT P6SM SCT050=

USA.gov is the U.S. government's official web portal to all federal, state and local government web resources and services.